createdAt,value
2022-08-01T00:02:00.620Z,63.93
2022-08-01T00:04:27.183Z,64.22
2022-08-01T00:06:53.721Z,63.97
2022-08-01T00:09:24.092Z,63.78
2022-08-01T00:11:59.661Z,64.13
2022-08-01T00:14:32.184Z,64.24
2022-08-01T00:17:03.776Z,64.03
2022-08-01T00:19:33.613Z,64.20
2022-08-01T00:22:00.156Z,64.08
2022-08-01T00:24:26.769Z,63.80
2022-08-01T00:26:53.289Z,64.07
2022-08-01T00:30:09.873Z,64.24
2022-08-01T00:32:06.945Z,64.01
2022-08-01T00:34:33.913Z,64.24
2022-08-01T00:37:00.472Z,64.19
2022-08-01T00:39:27.000Z,64.30
2022-08-01T00:41:59.632Z,64.13
2022-08-01T00:44:26.936Z,64.18
2022-08-01T00:46:53.507Z,63.85
2022-08-01T00:49:20.093Z,64.11
2022-08-01T00:51:46.699Z,64.27
2022-08-01T00:54:13.379Z,63.96
2022-08-01T00:56:43.392Z,64.01
2022-08-01T00:59:10.046Z,64.13
2022-08-01T01:01:39.600Z,64.01
2022-08-01T01:04:08.715Z,64.33
2022-08-01T01:06:56.667Z,64.38
2022-08-01T01:09:52.431Z,64.11
2022-08-01T01:12:29.680Z,63.98
2022-08-01T01:15:09.706Z,63.87
2022-08-01T01:18:08.279Z,63.83
2022-08-01T01:20:38.201Z,64.04
2022-08-01T01:23:21.476Z,64.21
2022-08-01T01:26:30.012Z,64.04
2022-08-01T01:29:11.837Z,63.99
2022-08-01T01:31:44.720Z,64.55
2022-08-01T01:34:12.873Z,64.31
2022-08-01T01:36:39.431Z,64.03
2022-08-01T01:39:07.884Z,64.19
2022-08-01T01:41:34.839Z,64.00
2022-08-01T01:44:01.412Z,64.42
2022-08-01T01:46:28.114Z,64.45
2022-08-01T01:48:55.234Z,64.07
2022-08-01T01:51:22.737Z,64.41
2022-08-01T01:53:50.696Z,64.00
2022-08-01T01:56:17.475Z,63.91
2022-08-01T01:58:44.056Z,63.98
2022-08-01T02:01:14.636Z,64.24
2022-08-01T02:03:42.789Z,64.54
2022-08-01T02:06:09.364Z,64.25
2022-08-01T02:08:35.908Z,64.50
2022-08-01T02:11:20.677Z,64.30
2022-08-01T02:13:59.513Z,64.15
2022-08-01T02:16:27.512Z,64.52
2022-08-01T02:18:54.243Z,64.24
2022-08-01T02:21:25.009Z,64.38
2022-08-01T02:23:51.668Z,64.32
2022-08-01T02:26:18.211Z,64.60
2022-08-01T02:28:57.792Z,64.34
2022-08-01T02:31:24.656Z,64.67
2022-08-01T02:34:00.021Z,64.21
2022-08-01T02:36:30.491Z,64.54
2022-08-01T02:38:59.860Z,64.39
2022-08-01T02:41:27.131Z,64.00
2022-08-01T02:43:54.212Z,64.08
2022-08-01T02:46:52.245Z,64.08
2022-08-01T02:49:20.314Z,64.34
2022-08-01T02:51:46.930Z,64.48
2022-08-01T02:54:13.540Z,64.35
2022-08-01T02:56:41.712Z,64.22
2022-08-01T02:59:10.287Z,64.27
2022-08-01T03:01:36.970Z,64.53
2022-08-01T03:04:06.751Z,64.67
2022-08-01T03:06:34.292Z,64.35
2022-08-01T03:09:04.387Z,64.14
2022-08-01T03:11:31.755Z,64.27
2022-08-01T03:13:59.540Z,64.36
2022-08-01T03:16:27.294Z,64.55
2022-08-01T03:18:54.550Z,64.49
2022-08-01T03:21:21.641Z,64.48
2022-08-01T03:23:50.310Z,64.15
2022-08-01T03:26:19.998Z,64.47
2022-08-01T03:28:47.344Z,64.78
2022-08-01T03:31:14.048Z,64.10
2022-08-01T03:33:40.720Z,64.79
2022-08-01T03:36:07.747Z,64.53
2022-08-01T03:38:34.273Z,64.48
2022-08-01T03:41:04.037Z,64.40
2022-08-01T03:44:04.084Z,64.54
2022-08-01T03:46:40.241Z,64.74
2022-08-01T03:49:09.101Z,64.26
2022-08-01T03:51:35.656Z,64.77
2022-08-01T03:54:02.222Z,64.56
2022-08-01T03:56:28.756Z,64.48
2022-08-01T03:58:55.313Z,64.26
2022-08-01T04:01:21.854Z,64.49
2022-08-01T04:03:48.411Z,64.60
2022-08-01T04:06:15.216Z,64.46
2022-08-01T04:08:42.278Z,64.13
2022-08-01T04:11:09.136Z,63.29
2022-08-01T04:13:37.050Z,62.42
2022-08-01T04:16:05.272Z,61.71
2022-08-01T04:18:31.814Z,60.91
2022-08-01T04:20:58.918Z,60.77
2022-08-01T04:23:25.848Z,60.41
2022-08-01T04:25:52.474Z,60.27
2022-08-01T04:28:20.586Z,60.09
2022-08-01T04:30:47.576Z,59.60
2022-08-01T04:33:17.176Z,59.99
2022-08-01T04:36:03.459Z,60.57
2022-08-01T04:38:32.190Z,60.12
2022-08-01T04:40:58.775Z,60.32
2022-08-01T04:43:25.939Z,60.67
2022-08-01T04:45:52.623Z,60.21
2022-08-01T04:48:20.414Z,60.08
2022-08-01T04:50:49.449Z,59.69
2022-08-01T04:53:17.801Z,59.77
2022-08-01T04:55:47.860Z,59.67
2022-08-01T04:58:18.215Z,59.89
2022-08-01T05:00:45.747Z,59.67
2022-08-01T05:03:12.267Z,60.24
2022-08-01T05:05:38.841Z,60.40
2022-08-01T05:08:07.080Z,60.26
2022-08-01T05:10:33.800Z,60.18
2022-08-01T05:13:00.327Z,60.48
2022-08-01T05:15:28.053Z,60.66
2022-08-01T05:17:55.039Z,60.80
2022-08-01T05:20:21.708Z,60.38
2022-08-01T05:22:48.228Z,60.71
2022-08-01T05:25:19.220Z,60.53
2022-08-01T05:27:49.121Z,60.70
2022-08-01T05:30:17.595Z,60.66
2022-08-01T05:32:44.125Z,60.77
2022-08-01T05:35:10.707Z,61.28
2022-08-01T05:37:37.246Z,61.03
2022-08-01T05:40:04.572Z,61.23
2022-08-01T05:42:31.290Z,60.87
2022-08-01T05:44:57.844Z,61.44
2022-08-01T05:47:24.443Z,61.08
2022-08-01T05:49:50.977Z,61.62
2022-08-01T05:52:17.570Z,61.34
2022-08-01T05:54:44.091Z,60.99
2022-08-01T05:57:11.246Z,61.41
2022-08-01T05:59:39.012Z,61.37
2022-08-01T06:02:05.987Z,61.14
2022-08-01T06:04:32.779Z,61.05
2022-08-01T06:06:59.305Z,61.65
2022-08-01T06:09:25.902Z,61.67
2022-08-01T06:11:52.464Z,61.38
2022-08-01T06:14:19.005Z,61.10
2022-08-01T06:16:45.676Z,61.66
2022-08-01T06:19:12.222Z,61.63
2022-08-01T06:21:38.788Z,61.78
2022-08-01T06:24:05.725Z,61.67
2022-08-01T06:26:32.316Z,61.56
2022-08-01T06:28:58.989Z,61.33
2022-08-01T06:31:27.580Z,61.32
2022-08-01T06:33:58.092Z,61.60
2022-08-01T06:36:24.657Z,61.64
2022-08-01T06:38:51.203Z,61.60
2022-08-01T06:41:17.741Z,61.73
2022-08-01T06:43:44.287Z,61.25
2022-08-01T06:46:10.888Z,61.33
2022-08-01T06:48:40.279Z,61.38
2022-08-01T06:51:10.022Z,61.62
2022-08-01T06:53:37.220Z,61.92
2022-08-01T06:56:04.216Z,61.95
2022-08-01T06:58:31.777Z,61.53
2022-08-01T07:00:58.620Z,61.65
2022-08-01T07:03:26.411Z,61.97
2022-08-01T07:06:12.992Z,62.01
2022-08-01T07:08:41.774Z,61.93
2022-08-01T07:11:08.287Z,61.84
2022-08-01T07:13:43.761Z,61.80
2022-08-01T07:16:15.256Z,61.80
2022-08-01T07:18:42.013Z,61.88
2022-08-01T07:21:16.729Z,61.58
2022-08-01T07:23:55.887Z,61.54
2022-08-01T07:26:23.122Z,61.67
2022-08-01T07:28:49.959Z,62.12
2022-08-01T07:31:16.588Z,61.92
2022-08-01T07:33:47.687Z,62.11
2022-08-01T07:36:16.105Z,62.15
2022-08-01T07:38:42.659Z,61.75
2022-08-01T07:41:09.238Z,62.01
2022-08-01T07:43:36.959Z,61.99
2022-08-01T07:46:04.409Z,61.97
2022-08-01T07:48:31.073Z,61.80
2022-08-01T07:50:57.670Z,62.09
2022-08-01T07:53:24.416Z,62.27
2022-08-01T07:55:50.936Z,61.79
2022-08-01T07:58:17.491Z,62.13
2022-08-01T08:00:44.064Z,62.11
2022-08-01T08:03:10.612Z,62.18
2022-08-01T08:05:58.404Z,61.88
2022-08-01T08:08:24.136Z,62.34
2022-08-01T08:10:50.732Z,61.96
2022-08-01T08:13:17.330Z,62.06
2022-08-01T08:15:48.515Z,62.30
2022-08-01T08:18:15.582Z,62.04
2022-08-01T08:20:42.137Z,62.22
2022-08-01T08:23:42.495Z,62.39
2022-08-01T08:26:10.937Z,62.12
2022-08-01T08:28:37.547Z,62.41
2022-08-01T08:31:04.211Z,62.15
2022-08-01T08:33:30.840Z,62.46
2022-08-01T08:35:57.668Z,62.29
2022-08-01T08:38:29.963Z,62.29
2022-08-01T08:40:57.400Z,62.19
2022-08-01T08:43:25.491Z,62.35
2022-08-01T08:46:00.133Z,62.23
2022-08-01T08:48:27.737Z,62.50
2022-08-01T08:50:54.600Z,62.51
2022-08-01T08:53:21.161Z,62.62
2022-08-01T08:55:56.054Z,62.34
2022-08-01T08:58:26.396Z,62.55
2022-08-01T09:00:58.452Z,62.59
2022-08-01T09:03:25.061Z,62.35
2022-08-01T09:05:51.670Z,62.20
2022-08-01T09:08:18.295Z,62.66
2022-08-01T09:10:44.861Z,62.13
2022-08-01T09:13:13.121Z,62.14
2022-08-01T09:15:47.296Z,62.19
2022-08-01T09:18:34.780Z,62.64
2022-08-01T09:21:07.347Z,62.49
2022-08-01T09:23:34.737Z,62.66
2022-08-01T09:26:01.310Z,62.57
2022-08-01T09:28:29.057Z,62.23
2022-08-01T09:30:57.385Z,62.68
2022-08-01T09:33:23.943Z,62.52
2022-08-01T09:35:58.478Z,62.67
2022-08-01T09:38:28.041Z,62.69
2022-08-01T09:40:55.798Z,62.27
2022-08-01T09:43:28.894Z,62.49
2022-08-01T09:45:57.917Z,62.56
2022-08-01T09:48:28.358Z,62.64
2022-08-01T09:51:04.240Z,62.73
2022-08-01T09:53:50.967Z,62.69
2022-08-01T09:56:19.310Z,62.76
2022-08-01T09:58:58.427Z,62.51
2022-08-01T10:01:26.490Z,62.44
2022-08-01T10:04:13.171Z,62.83
2022-08-01T10:06:41.667Z,62.50
2022-08-01T10:09:08.488Z,62.66
2022-08-01T10:11:36.146Z,62.51
2022-08-01T10:14:03.258Z,62.72
2022-08-01T10:16:29.843Z,62.60
2022-08-01T10:18:56.556Z,62.46
2022-08-01T10:21:58.001Z,62.55
2022-08-01T10:24:10.181Z,62.59
2022-08-01T10:26:36.752Z,62.98
2022-08-01T10:29:06.732Z,62.78
2022-08-01T10:31:53.348Z,62.82
2022-08-01T10:34:26.607Z,62.76
2022-08-01T10:36:56.236Z,62.70
2022-08-01T10:39:23.050Z,62.53
2022-08-01T10:41:50.480Z,62.23
2022-08-01T10:44:17.211Z,62.48
2022-08-01T10:46:46.160Z,62.42
2022-08-01T10:49:14.981Z,62.53
2022-08-01T10:51:52.199Z,62.27
2022-08-01T10:54:21.048Z,62.44
2022-08-01T10:56:51.839Z,62.00
2022-08-01T10:59:49.262Z,62.00
2022-08-01T11:02:08.882Z,62.19
2022-08-01T11:04:35.782Z,62.00
2022-08-01T11:07:07.522Z,62.35
2022-08-01T11:09:49.405Z,62.09
2022-08-01T11:12:23.131Z,62.14
2022-08-01T11:14:59.634Z,62.19
2022-08-01T11:17:48.564Z,61.95
2022-08-01T11:20:21.449Z,61.97
2022-08-01T11:23:02.968Z,61.76
2022-08-01T11:26:03.315Z,61.75
2022-08-01T11:28:33.890Z,62.06
2022-08-01T11:31:13.888Z,61.82
2022-08-01T11:33:40.638Z,61.72
2022-08-01T11:36:13.103Z,61.76
2022-08-01T11:38:47.945Z,61.97
2022-08-01T11:41:15.328Z,61.68
2022-08-01T11:44:03.477Z,61.89
2022-08-01T11:46:49.801Z,61.69
2022-08-01T11:49:49.372Z,61.73
2022-08-01T11:52:20.965Z,62.00
2022-08-01T11:54:51.304Z,62.03
2022-08-01T11:57:34.327Z,61.85
2022-08-01T12:00:04.733Z,61.71
2022-08-01T12:02:35.612Z,62.09
2022-08-01T12:05:04.945Z,61.71
2022-08-01T12:07:33.026Z,61.84
2022-08-01T12:10:08.266Z,61.93
2022-08-01T12:12:37.512Z,62.15
2022-08-01T12:15:06.351Z,62.10
2022-08-01T12:17:45.105Z,61.98
2022-08-01T12:20:24.830Z,62.22
2022-08-01T12:22:58.071Z,61.98
2022-08-01T12:25:24.972Z,62.05
2022-08-01T12:27:56.016Z,62.05
2022-08-01T12:30:23.846Z,61.91
2022-08-01T12:32:50.811Z,62.14
2022-08-01T12:35:18.919Z,62.13
2022-08-01T12:37:47.148Z,61.96
2022-08-01T12:40:18.563Z,61.86
2022-08-01T12:42:47.328Z,61.81
2022-08-01T12:45:15.659Z,61.89
2022-08-01T12:47:42.304Z,61.84
2022-08-01T12:50:12.401Z,61.89
2022-08-01T12:52:39.279Z,62.30
2022-08-01T12:55:09.662Z,62.09
2022-08-01T12:57:37.977Z,62.02
2022-08-01T13:00:18.163Z,61.87
2022-08-01T13:02:45.956Z,62.03
2022-08-01T13:05:12.523Z,62.33
2022-08-01T13:07:45.707Z,61.81
2022-08-01T13:10:13.101Z,61.94
2022-08-01T13:12:40.676Z,62.23
2022-08-01T13:15:24.473Z,62.31
2022-08-01T13:17:52.113Z,61.88
2022-08-01T13:20:30.438Z,62.00
2022-08-01T13:23:10.371Z,61.83
2022-08-01T13:25:55.004Z,62.15
2022-08-01T13:28:23.827Z,61.79
2022-08-01T13:30:57.649Z,62.06
2022-08-01T13:33:25.116Z,61.97
2022-08-01T13:35:53.272Z,62.22
2022-08-01T13:38:19.858Z,61.86
2022-08-01T13:40:46.547Z,61.81
2022-08-01T13:43:13.213Z,62.14
2022-08-01T13:45:40.811Z,61.84
2022-08-01T13:48:18.665Z,62.21
2022-08-01T13:50:53.362Z,61.88
2022-08-01T13:53:28.688Z,62.23
2022-08-01T13:55:55.288Z,61.78
2022-08-01T13:58:21.874Z,61.93
2022-08-01T14:00:48.440Z,62.19
2022-08-01T14:03:15.112Z,62.21
2022-08-01T14:05:41.659Z,62.13
2022-08-01T14:08:08.564Z,62.01
2022-08-01T14:10:35.470Z,61.82
2022-08-01T14:13:02.114Z,61.78
2022-08-01T14:15:37.473Z,62.08
2022-08-01T14:18:06.996Z,62.26
2022-08-01T14:20:34.878Z,61.90
2022-08-01T14:23:01.604Z,62.02
2022-08-01T14:26:05.185Z,61.79
2022-08-01T14:28:14.677Z,62.10
2022-08-01T14:30:43.478Z,62.26
2022-08-01T14:33:10.671Z,62.34
2022-08-01T14:36:01.451Z,62.17
2022-08-01T14:38:31.117Z,62.20
2022-08-01T14:40:58.961Z,62.03
2022-08-01T14:43:32.242Z,62.27
2022-08-01T14:46:00.477Z,61.95
2022-08-01T14:48:27.083Z,62.39
2022-08-01T14:50:53.723Z,62.43
2022-08-01T14:53:20.377Z,62.22
2022-08-01T14:55:46.986Z,62.04
2022-08-01T14:58:13.503Z,62.04
2022-08-01T15:00:40.133Z,62.34
2022-08-01T15:03:06.774Z,61.84
2022-08-01T15:05:33.860Z,62.09
2022-08-01T15:08:00.428Z,62.20
2022-08-01T15:10:27.058Z,62.19
2022-08-01T15:12:53.748Z,61.94
2022-08-01T15:15:20.402Z,62.35
2022-08-01T15:17:46.978Z,61.96
2022-08-01T15:20:13.532Z,62.15
2022-08-01T15:22:40.120Z,62.28
2022-08-01T15:25:07.191Z,62.05
2022-08-01T15:27:33.715Z,62.16
2022-08-01T15:30:00.379Z,62.51
2022-08-01T15:32:27.095Z,62.35
2022-08-01T15:34:53.770Z,62.36
2022-08-01T15:37:21.350Z,62.25
2022-08-01T15:39:47.952Z,62.05
2022-08-01T15:42:20.237Z,62.34
2022-08-01T15:44:52.244Z,62.35
2022-08-01T15:47:18.824Z,62.26
2022-08-01T15:49:45.647Z,62.14
2022-08-01T15:52:21.325Z,62.36
2022-08-01T15:54:49.217Z,62.06
2022-08-01T15:57:15.817Z,62.21
2022-08-01T15:59:42.426Z,62.21
2022-08-01T16:02:09.430Z,62.60
2022-08-01T16:04:36.400Z,62.11
2022-08-01T16:07:06.130Z,62.19
2022-08-01T16:09:32.680Z,62.50
2022-08-01T16:11:59.213Z,62.27
2022-08-01T16:14:25.768Z,62.77
2022-08-01T16:16:54.587Z,62.44
2022-08-01T16:19:21.793Z,62.60
2022-08-01T16:21:48.368Z,62.63
2022-08-01T16:24:14.939Z,62.75
2022-08-01T16:26:41.559Z,62.47
2022-08-01T16:29:08.120Z,62.74
2022-08-01T16:31:41.697Z,62.66
2022-08-01T16:34:15.182Z,62.55
2022-08-01T16:36:41.867Z,62.51
2022-08-01T16:39:08.449Z,62.53
2022-08-01T16:41:37.568Z,62.86
2022-08-01T16:44:04.435Z,62.61
2022-08-01T16:46:33.139Z,62.92
2022-08-01T16:48:59.777Z,62.42
2022-08-01T16:51:27.451Z,62.65
2022-08-01T16:53:54.049Z,62.89
2022-08-01T16:56:21.383Z,62.41
2022-08-01T16:58:47.912Z,62.93
2022-08-01T17:02:00.297Z,62.72
2022-08-01T17:04:02.042Z,62.81
2022-08-01T17:06:29.500Z,62.95
2022-08-01T17:08:56.103Z,63.00
2022-08-01T17:11:22.673Z,62.99
2022-08-01T17:13:49.308Z,62.69
2022-08-01T17:16:15.882Z,62.55
2022-08-01T17:18:42.489Z,62.55
2022-08-01T17:21:09.199Z,62.87
2022-08-01T17:23:35.902Z,62.99
2022-08-01T17:26:02.632Z,62.69
2022-08-01T17:28:29.211Z,62.63
2022-08-01T17:30:55.821Z,62.96
2022-08-01T17:33:22.344Z,62.69
2022-08-01T17:35:48.919Z,62.70
2022-08-01T17:38:15.507Z,62.69
2022-08-01T17:40:43.710Z,62.79
2022-08-01T17:43:10.241Z,62.95
2022-08-01T17:45:50.238Z,63.38
2022-08-01T17:48:18.440Z,62.72
2022-08-01T17:50:45.376Z,62.94
2022-08-01T17:53:12.467Z,62.83
2022-08-01T17:55:53.706Z,63.13
2022-08-01T17:58:36.626Z,63.12
2022-08-01T18:01:10.234Z,63.03
2022-08-01T18:03:41.487Z,62.65
2022-08-01T18:06:09.121Z,62.78
2022-08-01T18:08:35.704Z,62.69
2022-08-01T18:11:02.434Z,62.88
2022-08-01T18:13:29.924Z,62.87
2022-08-01T18:15:56.890Z,62.63
2022-08-01T18:18:32.725Z,63.13
2022-08-01T18:21:03.756Z,62.66
2022-08-01T18:23:30.364Z,62.97
2022-08-01T18:25:56.916Z,63.03
2022-08-01T18:28:32.900Z,62.76
2022-08-01T18:31:01.959Z,62.70
2022-08-01T18:33:28.543Z,62.89
2022-08-01T18:36:01.669Z,62.94
2022-08-01T18:38:30.078Z,62.90
2022-08-01T18:40:57.331Z,63.11
2022-08-01T18:43:23.916Z,62.77
2022-08-01T18:45:50.500Z,62.82
2022-08-01T18:48:17.037Z,62.74
2022-08-01T18:50:43.610Z,62.83
2022-08-01T18:53:10.544Z,63.18
2022-08-01T18:55:37.088Z,63.27
2022-08-01T18:58:03.653Z,62.85
2022-08-01T19:00:30.351Z,63.17
2022-08-01T19:02:56.972Z,62.86
2022-08-01T19:05:23.910Z,63.34
2022-08-01T19:08:06.714Z,62.87
2022-08-01T19:10:40.107Z,62.90
2022-08-01T19:13:07.755Z,63.23
2022-08-01T19:15:34.786Z,62.84
2022-08-01T19:18:02.114Z,63.15
2022-08-01T19:20:28.697Z,62.90
2022-08-01T19:22:55.807Z,63.03
2022-08-01T19:25:22.707Z,63.15
2022-08-01T19:27:49.903Z,62.91
2022-08-01T19:30:17.136Z,62.86
2022-08-01T19:32:44.043Z,63.03
2022-08-01T19:35:12.237Z,62.97
2022-08-01T19:37:45.847Z,62.85
2022-08-01T19:40:27.818Z,62.86
2022-08-01T19:42:55.393Z,63.07
2022-08-01T19:45:21.950Z,62.97
2022-08-01T19:47:51.648Z,62.47
2022-08-01T19:50:22.807Z,62.81
2022-08-01T19:52:49.367Z,63.18
2022-08-01T19:55:15.897Z,62.85
2022-08-01T19:57:46.199Z,62.84
2022-08-01T20:00:27.814Z,63.33
2022-08-01T20:02:55.151Z,63.04
2022-08-01T20:05:24.223Z,63.32
2022-08-01T20:07:51.063Z,63.22
2022-08-01T20:10:20.076Z,63.33
2022-08-01T20:12:47.166Z,62.84
2022-08-01T20:15:13.963Z,63.19
2022-08-01T20:17:40.648Z,63.18
2022-08-01T20:20:07.733Z,63.36
2022-08-01T20:22:34.982Z,63.22
2022-08-01T20:25:01.638Z,63.36
2022-08-01T20:27:29.203Z,63.29
2022-08-01T20:29:57.055Z,63.06
2022-08-01T20:32:25.115Z,63.18
2022-08-01T20:34:51.683Z,62.88
2022-08-01T20:38:03.425Z,63.31
2022-08-01T20:40:08.000Z,62.93
2022-08-01T20:42:39.232Z,63.22
2022-08-01T20:45:06.875Z,63.02
2022-08-01T20:47:33.537Z,63.33
2022-08-01T20:50:27.670Z,62.96
2022-08-01T20:53:06.700Z,63.12
2022-08-01T20:55:52.877Z,63.43
2022-08-01T20:58:34.194Z,63.27
2022-08-01T21:01:01.576Z,63.16
2022-08-01T21:03:31.932Z,63.23
2022-08-01T21:06:05.340Z,63.43
2022-08-01T21:08:41.917Z,63.35
2022-08-01T21:11:12.540Z,63.05
2022-08-01T21:13:41.913Z,63.50
2022-08-01T21:16:24.458Z,63.46
2022-08-01T21:21:51.196Z,63.51
2022-08-01T21:24:18.773Z,63.38
2022-08-01T21:26:46.031Z,63.35
2022-08-01T21:29:12.652Z,63.27
2022-08-01T21:31:41.047Z,63.43
2022-08-01T21:34:09.357Z,63.33
2022-08-01T21:36:36.103Z,63.43
2022-08-01T21:39:05.030Z,63.17
2022-08-01T21:42:04.785Z,63.09
2022-08-01T21:44:18.185Z,63.04
2022-08-01T21:46:44.723Z,63.50
2022-08-01T21:49:11.348Z,63.29
2022-08-01T21:51:43.440Z,63.49
2022-08-01T21:54:18.588Z,63.34
2022-08-01T21:57:17.729Z,63.56
2022-08-01T22:00:04.405Z,63.05
2022-08-01T22:02:37.958Z,63.35
2022-08-01T22:05:05.900Z,63.13
2022-08-01T22:07:35.405Z,63.26
2022-08-01T22:10:04.561Z,63.63
2022-08-01T22:12:32.777Z,63.10
2022-08-01T22:14:59.292Z,63.59
2022-08-01T22:17:25.886Z,63.63
2022-08-01T22:19:55.013Z,63.59
2022-08-01T22:22:44.445Z,63.08
2022-08-01T22:25:09.336Z,63.40
2022-08-01T22:28:07.927Z,63.67
2022-08-01T22:30:22.500Z,63.69
2022-08-01T22:33:07.444Z,63.37
2022-08-01T22:35:35.796Z,63.75
2022-08-01T22:38:06.416Z,63.38
2022-08-01T22:40:33.264Z,63.64
2022-08-01T22:43:00.380Z,63.54
2022-08-01T22:45:50.017Z,63.36
2022-08-01T22:48:34.175Z,63.67
2022-08-01T22:51:06.999Z,63.48
2022-08-01T22:53:46.805Z,63.63
2022-08-01T22:56:13.337Z,63.50
2022-08-01T22:58:40.255Z,63.67
2022-08-01T23:01:09.424Z,63.35
2022-08-01T23:03:41.843Z,63.30
2022-08-01T23:06:13.857Z,63.37
2022-08-01T23:08:41.150Z,63.83
2022-08-01T23:11:07.784Z,63.37
2022-08-01T23:13:34.355Z,63.29
2022-08-01T23:16:01.536Z,63.52
2022-08-01T23:18:28.315Z,63.58
2022-08-01T23:20:59.052Z,63.49
2022-08-01T23:23:30.523Z,63.92
2022-08-01T23:25:58.974Z,63.78
2022-08-01T23:28:27.425Z,63.42
2022-08-01T23:30:54.113Z,63.82
2022-08-01T23:33:20.683Z,63.79
2022-08-01T23:35:47.199Z,63.79
2022-08-01T23:38:15.787Z,63.61
2022-08-01T23:40:42.453Z,63.91
2022-08-01T23:43:16.831Z,64.01
2022-08-01T23:46:02.166Z,63.52
2022-08-01T23:48:31.325Z,64.06
2022-08-01T23:50:57.848Z,63.99
2022-08-01T23:53:24.421Z,63.77
2022-08-01T23:55:57.342Z,63.79
2022-08-01T23:58:24.134Z,63.57
